Time;durP1;ratioP1;P1;durP2;ratioP2;P2;SDS_P1;SDS_P2;PMS_P1;PMS_P2;Temp;Humidity;BMP_temperature;BMP_pressure;BME280_temperature;BME280_humidity;BME280_pressure;Samples;Min_cycle;Max_cycle;Signal;HPM_P1;HPM_P2
2022/09/15 06:46:43;;;;;;;4.05;2.80;;;15.00;99.90;;;;;;9861142;30;20059;-86
2022/09/15 06:51:44;;;;;;;8.15;4.35;;;15.10;99.90;;;;;;9865658;30;20039;-84
2022/09/15 06:56:44;;;;;;;5.32;3.50;;;15.20;99.90;;;;;;9863586;30;20413;-85
2022/09/15 07:01:45;;;;;;;6.78;3.30;;;15.40;99.90;;;;;;9865417;30;20378;-86
2022/09/15 07:06:46;;;;;;;8.60;3.78;;;15.50;99.90;;;;;;9864086;30;20059;-81
2022/09/15 07:11:46;;;;;;;6.25;3.25;;;15.50;99.90;;;;;;9858910;30;20035;-81
2022/09/15 07:16:47;;;;;;;4.13;2.70;;;15.50;99.90;;;;;;9856069;30;20041;-80
2022/09/15 07:21:49;;;;;;;7.97;4.43;;;15.50;99.90;;;;;;9864479;30;20430;-84
2022/09/15 07:26:50;;;;;;;15.32;8.00;;;15.60;99.90;;;;;;9863591;30;20048;-81
2022/09/15 07:31:51;;;;;;;19.48;9.85;;;15.60;99.90;;;;;;9848206;30;20422;-80
2022/09/15 07:36:52;;;;;;;25.73;12.32;;;15.60;99.90;;;;;;9848034;30;20043;-81
2022/09/15 07:41:52;;;;;;;20.08;10.68;;;15.70;99.90;;;;;;9863157;30;20368;-82
2022/09/15 07:46:53;;;;;;;21.90;11.32;;;15.70;99.90;;;;;;9845168;30;20198;-85
2022/09/15 07:51:53;;;;;;;26.02;14.05;;;15.80;99.90;;;;;;9861935;30;20039;-85
2022/09/15 07:56:54;;;;;;;31.98;14.93;;;15.80;99.90;;;;;;9862009;30;20043;-83
2022/09/15 08:01:54;;;;;;;27.75;13.75;;;15.90;99.90;;;;;;9857426;30;20043;-84
2022/09/15 08:06:55;;;;;;;29.63;14.23;;;15.80;99.90;;;;;;9839759;30;20490;-83
2022/09/15 08:11:55;;;;;;;20.25;10.95;;;15.80;99.90;;;;;;9860066;30;20134;-84
2022/09/15 08:16:59;;;;;;;26.63;12.55;;;15.80;99.90;;;;;;9844805;30;20587;-81
2022/09/15 08:22:01;;;;;;;12.35;7.18;;;15.80;99.90;;;;;;9860442;30;20042;-82
2022/09/15 08:27:01;;;;;;;14.52;7.43;;;15.90;99.90;;;;;;9860381;30;20098;-84
2022/09/15 08:32:02;;;;;;;9.75;5.78;;;15.90;99.90;;;;;;9853167;30;20122;-85
2022/09/15 08:37:03;;;;;;;10.88;6.10;;;16.10;99.90;;;;;;9863137;30;20753;-84
2022/09/15 08:42:04;;;;;;;7.30;5.00;;;16.30;99.90;;;;;;9845173;30;20046;-83
2022/09/15 08:47:16;;;;;;;9.32;6.32;;;16.50;99.90;;;;;;9858139;30;20052;-86
2022/09/15 08:52:39;;;;;;;7.40;5.28;;;16.80;99.90;;;;;;9862642;30;20070;-84
2022/09/15 08:57:40;;;;;;;10.73;5.47;;;16.80;99.90;;;;;;9852311;30;20130;-87
2022/09/15 09:03:08;;;;;;;9.70;6.40;;;16.70;99.90;;;;;;9839135;30;20482;-85
2022/09/15 09:08:36;;;;;;;10.98;7.28;;;16.60;99.90;;;;;;9851601;30;20505;-85
2022/09/15 09:13:48;;;;;;;9.90;6.35;;;16.60;99.90;;;;;;9838203;30;20132;-85
2022/09/15 09:18:58;;;;;;;9.30;6.40;;;16.90;99.90;;;;;;9851616;30;20028;-85
2022/09/15 09:24:18;;;;;;;8.73;5.93;;;17.10;99.90;;;;;;9859671;30;20768;-85
2022/09/15 09:29:28;;;;;;;9.52;6.43;;;17.20;99.90;;;;;;9852587;30;20393;-86
2022/09/15 09:34:53;;;;;;;9.65;6.10;;;17.20;99.90;;;;;;9857589;30;20393;-85
2022/09/15 09:39:54;;;;;;;21.80;15.67;;;17.40;99.90;;;;;;9846866;30;20028;-85
2022/09/15 09:44:55;;;;;;;18.25;13.25;;;17.50;99.90;;;;;;9847198;30;20064;-84
2022/09/15 09:49:56;;;;;;;5.28;4.30;;;17.60;99.90;;;;;;9842992;30;20085;-84
2022/09/15 09:55:02;;;;;;;6.70;4.90;;;17.60;99.90;;;;;;9822359;30;20088;-83
2022/09/15 10:00:03;;;;;;;9.45;5.32;;;17.60;99.90;;;;;;9831319;30;20028;-84
2022/09/15 10:05:06;;;;;;;14.27;8.63;;;17.60;99.90;;;;;;9836109;30;20486;-85
2022/09/15 10:10:21;;;;;;;9.80;5.63;;;17.30;99.90;;;;;;9843751;30;20032;-84
2022/09/15 10:15:28;;;;;;;12.40;6.57;;;17.10;99.90;;;;;;9838072;30;20118;-84
2022/09/15 10:20:34;;;;;;;8.57;5.15;;;16.90;99.90;;;;;;9839059;30;20044;-84
2022/09/15 10:25:36;;;;;;;;;;;16.90;99.90;;;;;;9828125;30;20056;-84
2022/09/15 10:30:37;;;;;;;14.65;8.52;;;16.90;99.90;;;;;;9838104;30;20013;-86
2022/09/15 10:35:41;;;;;;;7.20;5.38;;;17.00;99.90;;;;;;9825395;30;20028;-83
2022/09/15 10:40:49;;;;;;;11.15;6.63;;;17.10;99.90;;;;;;9841440;30;20054;-83
2022/09/15 10:46:35;;;;;;;10.50;6.80;;;17.10;99.90;;;;;;9854253;30;20150;-83
2022/09/15 10:51:57;;;;;;;11.10;7.03;;;17.10;99.90;;;;;;9844774;30;20138;-83
2022/09/15 10:57:21;;;;;;;9.32;6.63;;;17.10;99.90;;;;;;9865024;30;20040;-82
2022/09/15 11:02:44;;;;;;;12.57;7.30;;;17.00;99.90;;;;;;9837050;30;20024;-83
2022/09/15 11:08:11;;;;;;;9.73;6.03;;;17.10;99.90;;;;;;9845307;30;20052;-82
2022/09/15 11:13:17;;;;;;;10.52;7.43;;;17.10;99.90;;;;;;9847112;30;20036;-82
2022/09/15 11:18:35;;;;;;;36.08;22.45;;;17.00;99.90;;;;;;9852613;30;20027;-83
2022/09/15 11:24:03;;;;;;;28.85;16.05;;;16.90;99.90;;;;;;9862625;30;20038;-83
2022/09/15 11:29:32;;;;;;;22.90;13.10;;;16.80;99.90;;;;;;9855411;30;20119;-82
2022/09/15 11:34:41;;;;;;;34.22;20.05;;;16.70;99.90;;;;;;9802387;30;20075;-83
2022/09/15 11:39:52;;;;;;;23.27;15.18;;;16.70;99.90;;;;;;9856966;30;20397;-83
2022/09/15 11:44:54;;;;;;;25.33;16.40;;;16.80;99.90;;;;;;9835012;30;20580;-83
2022/09/15 11:50:09;;;;;;;24.52;15.50;;;16.90;99.90;;;;;;9847928;30;20051;-83
2022/09/15 11:55:40;;;;;;;21.30;13.50;;;17.10;99.90;;;;;;9863370;30;20036;-83
2022/09/15 12:00:58;;;;;;;18.58;13.23;;;17.20;99.90;;;;;;9835347;30;20063;-84
2022/09/15 12:06:23;;;;;;;22.95;15.18;;;17.20;99.90;;;;;;9853782;30;20048;-83
2022/09/15 12:11:27;;;;;;;22.60;14.10;;;17.10;99.90;;;;;;9841662;30;20145;-82
2022/09/15 12:16:29;;;;;;;29.23;17.33;;;16.90;99.90;;;;;;9848062;30;20791;-82
2022/09/15 12:21:33;;;;;;;23.70;14.63;;;16.80;99.90;;;;;;9852528;30;20028;-84
2022/09/15 12:26:34;;;;;;;26.08;15.30;;;16.80;99.90;;;;;;9845773;30;20127;-82
2022/09/15 12:31:37;;;;;;;26.67;16.40;;;16.80;99.90;;;;;;9849380;30;20485;-83
2022/09/15 12:36:44;;;;;;;33.20;17.58;;;16.80;99.90;;;;;;9852768;30;20059;-82
2022/09/15 12:41:50;;;;;;;34.05;18.45;;;16.60;99.90;;;;;;9829635;30;20097;-83
2022/09/15 12:46:55;;;;;;;;;;;16.40;99.90;;;;;;9843926;30;20051;-83
2022/09/15 12:51:57;;;;;;;45.97;22.38;;;16.30;99.90;;;;;;9848976;30;19975;-85
2022/09/15 12:56:59;;;;;;;36.08;19.42;;;16.20;99.90;;;;;;9838646;30;20039;-85
2022/09/15 13:02:01;;;;;;;33.72;15.73;;;16.10;99.90;;;;;;9846516;30;20024;-84
2022/09/15 13:07:29;;;;;;;40.15;22.73;;;16.00;99.90;;;;;;9843241;30;20044;-83
2022/09/15 13:12:36;;;;;;;41.13;20.25;;;16.10;99.90;;;;;;9851773;30;20036;-83
2022/09/15 13:17:41;;;;;;;30.77;16.60;;;16.20;99.90;;;;;;9843992;30;20485;-83
2022/09/15 13:22:50;;;;;;;32.35;16.48;;;16.30;99.90;;;;;;9836280;30;20031;-83
2022/09/15 13:28:00;;;;;;;33.60;16.23;;;16.30;99.90;;;;;;9839171;30;20100;-84
2022/09/15 13:33:29;;;;;;;39.20;19.05;;;16.30;99.90;;;;;;9844789;30;20024;-85
2022/09/15 13:39:07;;;;;;;36.83;19.38;;;16.40;99.90;;;;;;9848974;30;20035;-82
2022/09/15 13:44:08;;;;;;;41.70;18.63;;;16.30;99.90;;;;;;9842516;30;20055;-83
2022/09/15 13:49:18;;;;;;;45.60;19.85;;;16.20;99.90;;;;;;9835185;30;20036;-83
2022/09/15 13:54:19;;;;;;;39.75;19.25;;;16.10;99.90;;;;;;9855181;30;20036;-83
2022/09/15 13:59:27;;;;;;;33.30;18.08;;;16.10;99.90;;;;;;9848299;30;20028;-83
2022/09/15 14:04:30;;;;;;;40.20;19.30;;;16.00;99.90;;;;;;9850707;30;20035;-84
2022/09/15 14:09:46;;;;;;;37.05;18.88;;;16.00;99.90;;;;;;9846293;30;20101;-83
2022/09/15 14:14:54;;;;;;;31.85;16.85;;;15.90;99.90;;;;;;9846939;30;20047;-83
2022/09/15 14:19:57;;;;;;;32.97;17.50;;;15.80;99.90;;;;;;9848746;30;20079;-83
2022/09/15 14:25:04;;;;;;;28.75;18.25;;;15.80;99.90;;;;;;9853754;30;20059;-84
2022/09/15 14:30:08;;;;;;;31.92;17.73;;;15.90;99.90;;;;;;9855756;30;20114;-84
2022/09/15 14:35:16;;;;;;;17.05;11.55;;;15.80;99.90;;;;;;9849689;30;20142;-83
2022/09/15 14:40:22;;;;;;;21.52;13.43;;;15.60;99.90;;;;;;9856160;30;20460;-85
2022/09/15 14:45:36;;;;;;;24.48;13.85;;;15.50;99.90;;;;;;9855322;30;20084;-84
2022/09/15 14:50:36;;;;;;;29.92;16.92;;;15.40;99.90;;;;;;9854880;30;20047;-84
2022/09/15 14:55:51;;;;;;;34.65;17.40;;;15.30;99.90;;;;;;9836213;30;20509;-84
2022/09/15 15:01:01;;;;;;;31.07;18.00;;;15.30;99.90;;;;;;9846565;30;20119;-82
2022/09/15 15:12:05;;;;;;;32.80;18.23;;;15.20;99.90;;;;;;9852229;30;20040;-83
2022/09/15 15:17:05;;;;;;;26.70;15.80;;;15.10;99.90;;;;;;9854198;30;20104;-82
2022/09/15 15:22:19;;;;;;;25.75;15.57;;;15.00;99.90;;;;;;9848191;30;20177;-82
2022/09/15 15:27:40;;;;;;;38.85;21.65;;;15.00;99.90;;;;;;9840069;30;20134;-82
2022/09/15 15:32:42;;;;;;;26.85;16.38;;;15.00;99.90;;;;;;9861706;30;20028;-83
2022/09/15 15:37:43;;;;;;;35.40;19.30;;;15.10;99.90;;;;;;9862420;30;20116;-82
2022/09/15 15:42:55;;;;;;;27.52;16.75;;;15.10;99.90;;;;;;9829522;30;20219;-82
2022/09/15 15:47:56;;;;;;;26.38;16.52;;;15.10;99.90;;;;;;9851605;30;20047;-83
2022/09/15 15:52:57;;;;;;;30.98;18.65;;;15.10;99.90;;;;;;9860440;30;20535;-84
2022/09/15 15:57:57;;;;;;;31.58;19.75;;;15.10;99.90;;;;;;9862333;30;20072;-82
2022/09/15 16:02:58;;;;;;;29.55;18.63;;;15.10;99.90;;;;;;9857920;30;20032;-82
2022/09/15 16:08:24;;;;;;;30.30;16.63;;;15.10;99.90;;;;;;9840610;30;20039;-82
2022/09/15 16:13:25;;;;;;;26.85;17.25;;;15.10;99.90;;;;;;9852180;30;20140;-82
2022/09/15 16:18:26;;;;;;;34.17;19.98;;;15.10;99.90;;;;;;9857304;30;20032;-83
2022/09/15 16:23:27;;;;;;;60.50;35.17;;;15.00;99.90;;;;;;9857208;30;20040;-83
2022/09/15 16:28:28;;;;;;;65.45;36.60;;;14.90;99.90;;;;;;9852781;30;20432;-82
2022/09/15 16:33:28;;;;;;;40.70;22.20;;;14.90;99.90;;;;;;9857308;30;20461;-83
2022/09/15 16:38:29;;;;;;;36.90;20.88;;;14.90;99.90;;;;;;9842822;30;20036;-82
2022/09/15 16:43:32;;;;;;;36.00;21.27;;;14.90;99.90;;;;;;9861586;30;20116;-81
2022/09/15 16:48:34;;;;;;;42.92;23.35;;;14.80;99.90;;;;;;9854268;30;20101;-82
2022/09/15 16:53:38;;;;;;;46.90;25.33;;;14.70;99.90;;;;;;9840731;30;20260;-81
2022/09/15 16:58:39;;;;;;;44.50;24.80;;;14.70;99.90;;;;;;9861403;30;20043;-83
2022/09/15 17:03:42;;;;;;;39.22;21.55;;;14.70;99.90;;;;;;9844304;30;20580;-83
2022/09/15 17:08:43;;;;;;;35.10;19.40;;;14.60;99.90;;;;;;9857660;30;20062;-83
2022/09/15 17:13:44;;;;;;;45.80;24.77;;;14.50;99.90;;;;;;9840822;30;20159;-82
2022/09/15 17:18:45;;;;;;;31.58;19.80;;;14.40;99.90;;;;;;9860250;30;20047;-83
2022/09/15 17:23:48;;;;;;;40.50;21.15;;;14.30;99.90;;;;;;9841006;30;21221;-83
2022/09/15 17:28:49;;;;;;;43.17;23.40;;;14.20;99.90;;;;;;9856761;30;20026;-84
2022/09/15 17:33:50;;;;;;;43.10;26.13;;;14.10;99.90;;;;;;9862391;30;20055;-83
2022/09/15 17:38:51;;;;;;;38.50;22.40;;;14.00;99.90;;;;;;9847382;30;20124;-84
2022/09/15 17:43:52;;;;;;;40.47;21.45;;;14.00;99.90;;;;;;9844449;30;20167;-81
2022/09/15 17:48:52;;;;;;;43.65;26.08;;;13.90;99.90;;;;;;9836479;30;20342;-83
2022/09/15 17:53:53;;;;;;;46.47;25.60;;;13.90;99.90;;;;;;9846858;30;20036;-84
2022/09/15 17:58:54;;;;;;;41.10;22.80;;;13.80;99.90;;;;;;9837582;30;20125;-83
2022/09/15 18:03:54;;;;;;;48.13;24.70;;;13.90;99.90;;;;;;9855056;30;20193;-86
2022/09/15 18:08:56;;;;;;;44.47;23.17;;;13.80;99.90;;;;;;9848342;30;20039;-84
2022/09/15 18:13:56;;;;;;;50.55;27.38;;;13.90;99.90;;;;;;9825017;30;20046;-84
2022/09/15 18:18:57;;;;;;;55.10;27.80;;;13.90;99.90;;;;;;9856124;30;20035;-83
2022/09/15 18:23:57;;;;;;;54.75;30.65;;;13.90;99.90;;;;;;9852348;30;20040;-83
2022/09/15 18:28:58;;;;;;;64.38;35.88;;;13.90;99.90;;;;;;9844258;30;20898;-84
2022/09/15 18:33:59;;;;;;;61.08;32.90;;;13.90;99.90;;;;;;9853169;30;20046;-82
2022/09/15 18:38:59;;;;;;;74.05;39.13;;;13.90;99.90;;;;;;9849995;30;20047;-83
2022/09/15 18:44:00;;;;;;;72.38;37.40;;;13.90;99.90;;;;;;9846815;30;20063;-84
2022/09/15 18:49:02;;;;;;;75.65;38.75;;;13.90;99.90;;;;;;9847655;30;20462;-85
2022/09/15 18:54:02;;;;;;;65.30;34.80;;;13.90;99.90;;;;;;9853545;30;20044;-85
2022/09/15 18:59:03;;;;;;;61.63;31.60;;;13.90;99.90;;;;;;9848655;30;20056;-85
2022/09/15 19:04:04;;;;;;;66.07;32.22;;;13.90;99.90;;;;;;9847111;30;20452;-83
2022/09/15 19:09:05;;;;;;;66.07;33.22;;;13.90;99.90;;;;;;9841039;30;20040;-84
2022/09/15 19:14:06;;;;;;;60.85;30.55;;;13.80;99.90;;;;;;9845139;30;20305;-84
2022/09/15 19:19:08;;;;;;;72.78;34.97;;;13.80;99.90;;;;;;9845893;30;20039;-84
2022/09/15 19:24:08;;;;;;;73.43;31.92;;;13.70;99.90;;;;;;9849942;30;20032;-85
2022/09/15 19:29:09;;;;;;;78.18;35.95;;;13.70;99.90;;;;;;9852654;30;20040;-85
2022/09/15 19:34:10;;;;;;;78.88;36.40;;;13.60;99.90;;;;;;9849937;30;20070;-83
2022/09/15 19:39:12;;;;;;;82.85;37.42;;;13.60;99.90;;;;;;9847641;30;20028;-85
2022/09/15 19:44:14;;;;;;;86.60;36.80;;;13.60;99.90;;;;;;9848248;30;20055;-84
2022/09/15 19:49:15;;;;;;;79.82;36.15;;;13.60;99.90;;;;;;9842263;30;20389;-85
2022/09/15 19:54:16;;;;;;;85.60;38.38;;;13.50;99.90;;;;;;9848586;30;20035;-83
2022/09/15 19:59:18;;;;;;;89.18;40.30;;;13.50;99.90;;;;;;9865348;30;20040;-85
2022/09/15 20:04:19;;;;;;;83.82;37.08;;;13.50;99.90;;;;;;9844772;30;20089;-84
2022/09/15 20:09:19;;;;;;;105.40;42.40;;;13.50;99.90;;;;;;9848091;30;20126;-86
2022/09/15 20:14:20;;;;;;;98.78;41.30;;;13.50;99.90;;;;;;9858380;30;20024;-83
2022/09/15 20:19:20;;;;;;;90.55;35.85;;;13.40;99.90;;;;;;9859867;30;20036;-84
2022/09/15 20:24:22;;;;;;;83.65;38.05;;;13.20;99.90;;;;;;9846865;30;20043;-84
2022/09/15 20:29:23;;;;;;;85.55;38.47;;;13.10;99.90;;;;;;9863142;30;20031;-84
2022/09/15 20:34:23;;;;;;;99.47;43.03;;;12.90;99.90;;;;;;9863663;30;20039;-84
2022/09/15 20:39:24;;;;;;;99.55;42.40;;;12.80;99.90;;;;;;9863038;30;20092;-84
2022/09/15 20:44:25;;;;;;;113.78;49.22;;;12.60;99.90;;;;;;9842473;30;20059;-84
2022/09/15 20:49:27;;;;;;;114.57;47.25;;;12.50;99.90;;;;;;9858235;30;20421;-85
2022/09/15 20:54:27;;;;;;;99.53;42.60;;;12.60;99.90;;;;;;9862371;30;20039;-84
2022/09/15 20:59:28;;;;;;;101.88;42.22;;;12.60;99.90;;;;;;9861324;30;20401;-84
2022/09/15 21:04:29;;;;;;;101.38;44.25;;;12.60;99.90;;;;;;9843073;30;20055;-83
2022/09/15 21:09:29;;;;;;;108.15;44.42;;;12.60;99.90;;;;;;9845808;30;20031;-82
2022/09/15 21:14:30;;;;;;;93.78;37.60;;;12.60;99.90;;;;;;9857263;30;20382;-83
2022/09/15 21:19:30;;;;;;;85.93;39.33;;;12.50;99.90;;;;;;9858311;30;20451;-83
2022/09/15 21:24:31;;;;;;;86.57;39.63;;;12.40;99.90;;;;;;9849575;30;20047;-82
2022/09/15 21:29:31;;;;;;;107.47;43.13;;;12.30;99.90;;;;;;9844248;30;20038;-82
2022/09/15 21:34:32;;;;;;;104.72;42.25;;;12.40;99.90;;;;;;9856872;30;20046;-84
2022/09/15 21:39:32;;;;;;;106.75;45.65;;;12.40;99.90;;;;;;9856014;30;20408;-84
2022/09/15 21:44:33;;;;;;;104.68;45.08;;;12.40;99.90;;;;;;9861346;30;20062;-84
2022/09/15 21:49:33;;;;;;;99.78;44.85;;;12.40;99.90;;;;;;9859734;30;20122;-83
2022/09/15 21:54:34;;;;;;;120.40;52.85;;;12.50;99.90;;;;;;9840448;30;20107;-85
2022/09/15 21:59:34;;;;;;;94.43;45.20;;;12.50;99.90;;;;;;9861259;30;20047;-83
2022/09/15 22:04:35;;;;;;;92.70;44.58;;;12.60;99.90;;;;;;9861425;30;20040;-83
2022/09/15 22:09:37;;;;;;;88.20;41.65;;;12.60;99.90;;;;;;9844838;30;20071;-84
2022/09/15 22:14:38;;;;;;;83.75;40.38;;;12.60;99.90;;;;;;9860262;30;20063;-84
2022/09/15 22:19:38;;;;;;;87.45;39.83;;;12.70;99.90;;;;;;9860997;30;20218;-85
2022/09/15 22:24:39;;;;;;;73.53;34.28;;;12.70;99.90;;;;;;9860418;30;20459;-84
2022/09/15 22:29:39;;;;;;;60.42;30.00;;;12.80;99.90;;;;;;9831960;30;20036;-84
2022/09/15 22:34:40;;;;;;;51.83;26.00;;;12.80;99.90;;;;;;9848048;30;20039;-82
2022/09/15 22:39:40;;;;;;;51.78;24.65;;;12.80;99.90;;;;;;9830424;30;20182;-83
2022/09/15 22:44:41;;;;;;;51.22;24.15;;;12.80;99.90;;;;;;9827581;30;20058;-84
2022/09/15 22:49:41;;;;;;;49.85;22.85;;;12.80;99.90;;;;;;9867535;30;20043;-83
2022/09/15 22:54:42;;;;;;;46.28;23.52;;;12.80;99.90;;;;;;9851038;30;20043;-83
2022/09/15 22:59:42;;;;;;;45.72;22.23;;;12.80;99.90;;;;;;9855721;30;20028;-84
2022/09/15 23:04:43;;;;;;;50.95;23.08;;;12.70;99.90;;;;;;9851975;30;20040;-83
2022/09/15 23:09:44;;;;;;;43.97;22.27;;;12.80;99.90;;;;;;9866423;30;20044;-82
2022/09/15 23:14:44;;;;;;;48.50;23.65;;;12.80;99.90;;;;;;9866335;30;20074;-84
2022/09/15 23:19:45;;;;;;;56.17;25.50;;;12.70;99.90;;;;;;9854725;30;20039;-83
2022/09/15 23:24:45;;;;;;;45.10;21.30;;;12.70;99.90;;;;;;9843452;30;20048;-83
2022/09/15 23:29:46;;;;;;;45.22;21.67;;;12.70;99.90;;;;;;9860262;30;20515;-83
2022/09/15 23:34:47;;;;;;;51.47;24.70;;;12.70;99.90;;;;;;9854228;30;20032;-84
2022/09/15 23:39:48;;;;;;;50.40;26.52;;;12.60;99.90;;;;;;9842080;30;20036;-83
2022/09/15 23:44:48;;;;;;;59.58;28.55;;;12.60;99.90;;;;;;9833161;30;20051;-84
2022/09/15 23:49:49;;;;;;;48.83;25.75;;;12.60;99.90;;;;;;9852904;30;20773;-83
2022/09/15 23:54:49;;;;;;;53.95;26.67;;;12.60;99.90;;;;;;9865600;30;20032;-83
2022/09/15 23:59:50;;;;;;;58.92;26.77;;;12.60;99.90;;;;;;9841610;30;20115;-83
